Time;durP1;ratioP1;P1;durP2;ratioP2;P2;SDS_P1;SDS_P2;PMS_P1;PMS_P2;Temp;Humidity;BMP_temperature;BMP_pressure;BME280_temperature;BME280_humidity;BME280_pressure;Samples;Min_cycle;Max_cycle;Signal;HPM_P1;HPM_P2
2022/01/27 00:05:03;;;;;;;34.45;16.15;;;;;;;;;;5128954;27;20098;-61
2022/01/27 00:07:30;;;;;;;33.55;15.55;;;;;;;;;;5129600;27;20060;-61
2022/01/27 00:10:20;;;;;;;30.67;15.27;;;;;;;;;;5131900;27;20051;-61
2022/01/27 00:12:47;;;;;;;31.23;15.73;;;;;;;;;;5129208;27;20083;-62
2022/01/27 00:15:14;;;;;;;39.47;14.90;;;;;;;;;;5128802;27;20448;-61
2022/01/27 00:17:45;;;;;;;31.30;15.70;;;;;;;;;;5129418;27;20052;-61
2022/01/27 00:20:12;;;;;;;35.60;16.77;;;;;;;;;;5144322;27;20744;-61
2022/01/27 00:22:39;;;;;;;37.10;17.02;;;;;;;;;;5134559;27;20096;-61
2022/01/27 00:25:06;;;;;;;32.22;16.02;;;;;;;;;;5149956;27;20051;-62
2022/01/27 00:27:33;;;;;;;31.85;15.40;;;;;;;;;;5149257;27;20051;-61
2022/01/27 00:30:00;;;;;;;33.40;15.82;;;;;;;;;;5149953;27;20059;-62
2022/01/27 00:32:26;;;;;;;33.50;15.20;;;;;;;;;;5147106;27;20047;-61
2022/01/27 00:34:53;;;;;;;36.58;15.07;;;;;;;;;;5149534;27;20058;-61
2022/01/27 00:37:19;;;;;;;32.85;15.40;;;;;;;;;;5149861;27;20501;-61
2022/01/27 00:39:45;;;;;;;33.13;14.82;;;;;;;;;;5149447;27;20146;-61
2022/01/27 00:42:12;;;;;;;33.35;14.55;;;;;;;;;;5147749;27;20564;-61
2022/01/27 00:44:38;;;;;;;32.13;15.55;;;;;;;;;;5149703;27;20059;-61
2022/01/27 00:47:04;;;;;;;34.95;15.52;;;;;;;;;;5149632;27;20120;-61
2022/01/27 00:49:31;;;;;;;31.50;14.65;;;;;;;;;;5149442;27;20062;-62
2022/01/27 00:52:00;;;;;;;35.38;16.02;;;;;;;;;;5135552;27;20061;-61
2022/01/27 00:54:28;;;;;;;34.33;16.52;;;;;;;;;;5128707;27;20051;-61
2022/01/27 00:57:07;;;;;;;29.45;13.85;;;;;;;;;;5128602;27;20074;-61
2022/01/27 01:02:18;;;;;;;34.17;13.88;;;;;;;;;;5137974;27;20054;-61
2022/01/27 01:04:50;;;;;;;31.77;14.48;;;;;;;;;;5128644;27;20058;-61
2022/01/27 01:07:19;;;;;;;31.10;14.90;;;;;;;;;;5128072;27;20074;-62
2022/01/27 01:15:22;;;;;;;29.75;13.32;;;;;;;;;;5152712;27;20865;-61
2022/01/27 01:17:58;;;;;;;32.10;14.85;;;;;;;;;;5152510;27;20508;-61
2022/01/27 01:20:37;;;;;;;33.05;13.90;;;;;;;;;;5152660;27;20079;-62
2022/01/27 01:33:57;;;;;;;31.73;14.70;;;;;;;;;;5152791;27;20066;-62
2022/01/27 01:36:36;;;;;;;30.85;14.45;;;;;;;;;;5152385;27;20047;-61
2022/01/27 01:39:03;;;;;;;36.13;13.68;;;;;;;;;;5151934;27;20536;-61
2022/01/27 01:41:30;;;;;;;31.25;13.90;;;;;;;;;;5145730;27;20055;-61
2022/01/27 01:43:56;;;;;;;31.55;14.38;;;;;;;;;;5131741;27;20531;-61
2022/01/27 01:46:22;;;;;;;34.17;15.23;;;;;;;;;;5130972;27;20055;-61
2022/01/27 01:48:49;;;;;;;30.05;13.85;;;;;;;;;;5131467;27;20050;-61
2022/01/27 01:51:19;;;;;;;30.13;15.43;;;;;;;;;;5131757;27;20109;-61
2022/01/27 01:53:46;;;;;;;28.13;13.38;;;;;;;;;;5130983;27;20051;-61
2022/01/27 01:56:12;;;;;;;32.92;14.00;;;;;;;;;;5131224;27;20067;-61
2022/01/27 01:58:38;;;;;;;29.90;14.55;;;;;;;;;;5131576;27;20056;-61
2022/01/27 02:01:05;;;;;;;31.27;12.50;;;;;;;;;;5134223;27;20056;-61
2022/01/27 02:03:31;;;;;;;32.70;14.45;;;;;;;;;;5131144;27;20040;-61
2022/01/27 02:05:58;;;;;;;29.13;13.88;;;;;;;;;;5131611;27;20063;-61
2022/01/27 02:08:45;;;;;;;30.33;15.18;;;;;;;;;;5135469;27;20075;-61
2022/01/27 02:19:27;;;;;;;30.98;14.98;;;;;;;;;;5130905;27;20493;-61
2022/01/27 02:21:55;;;;;;;33.40;15.30;;;;;;;;;;5136472;27;20134;-62
2022/01/27 02:24:24;;;;;;;28.83;14.43;;;;;;;;;;5142955;27;20100;-61
2022/01/27 02:26:51;;;;;;;33.97;15.10;;;;;;;;;;5152219;27;20062;-61
2022/01/27 02:29:18;;;;;;;35.78;15.13;;;;;;;;;;5151452;27;20159;-61
2022/01/27 02:31:45;;;;;;;30.35;14.52;;;;;;;;;;5149274;27;20138;-61
2022/01/27 02:34:11;;;;;;;35.53;15.18;;;;;;;;;;5140797;27;20051;-61
2022/01/27 02:36:38;;;;;;;34.47;16.00;;;;;;;;;;5130524;27;20044;-61
2022/01/27 02:39:05;;;;;;;29.63;15.32;;;;;;;;;;5130351;27;20085;-61
2022/01/27 02:41:40;;;;;;;33.05;14.73;;;;;;;;;;5130245;27;20056;-61
2022/01/27 02:44:06;;;;;;;37.22;16.00;;;;;;;;;;5130174;27;20679;-61
2022/01/27 02:46:41;;;;;;;31.70;15.57;;;;;;;;;;5130156;27;20048;-61
2022/01/27 02:49:08;;;;;;;35.13;16.05;;;;;;;;;;5130183;27;20063;-61
2022/01/27 02:51:35;;;;;;;33.00;15.00;;;;;;;;;;5142116;27;20051;-61
2022/01/27 02:54:01;;;;;;;35.42;14.55;;;;;;;;;;5151093;27;20078;-62
2022/01/27 02:56:27;;;;;;;35.67;15.82;;;;;;;;;;5151375;27;20436;-61
2022/01/27 02:58:53;;;;;;;33.60;15.85;;;;;;;;;;5150629;27;20047;-61
2022/01/27 03:01:21;;;;;;;32.80;14.88;;;;;;;;;;5137412;27;20536;-62
2022/01/27 03:03:47;;;;;;;27.85;14.48;;;;;;;;;;5130045;27;20086;-61
2022/01/27 03:06:14;;;;;;;34.65;15.57;;;;;;;;;;5129819;27;20056;-61
2022/01/27 03:08:41;;;;;;;28.92;14.73;;;;;;;;;;5130237;27;20056;-62
2022/01/27 03:11:13;;;;;;;33.70;15.23;;;;;;;;;;5132839;27;20145;-61
2022/01/27 03:13:40;;;;;;;35.10;15.20;;;;;;;;;;5129485;27;20516;-61
2022/01/27 03:16:08;;;;;;;30.25;14.88;;;;;;;;;;5129065;27;20070;-61
2022/01/27 03:18:35;;;;;;;31.90;15.00;;;;;;;;;;5130336;27;20138;-61
2022/01/27 03:21:03;;;;;;;34.33;15.18;;;;;;;;;;5129629;27;20528;-61
2022/01/27 03:23:29;;;;;;;28.40;13.70;;;;;;;;;;5149431;27;20057;-61
2022/01/27 03:25:55;;;;;;;33.88;14.25;;;;;;;;;;5146503;27;20432;-61
2022/01/27 03:28:26;;;;;;;32.47;14.40;;;;;;;;;;5130380;27;20505;-61
2022/01/27 03:30:52;;;;;;;30.75;14.68;;;;;;;;;;5129726;27;20048;-61
2022/01/27 03:33:18;;;;;;;32.85;14.63;;;;;;;;;;5145731;27;20134;-61
2022/01/27 03:35:44;;;;;;;35.97;16.52;;;;;;;;;;5150871;27;20789;-61
2022/01/27 03:38:11;;;;;;;32.28;14.20;;;;;;;;;;5150386;27;20055;-61
2022/01/27 03:40:38;;;;;;;34.40;15.75;;;;;;;;;;5150941;27;20502;-61
2022/01/27 03:43:06;;;;;;;35.78;14.65;;;;;;;;;;5146528;27;20489;-61
2022/01/27 03:45:32;;;;;;;31.98;13.68;;;;;;;;;;5140953;27;20505;-61
2022/01/27 03:47:59;;;;;;;32.45;14.35;;;;;;;;;;5150006;27;20567;-61
2022/01/27 03:50:25;;;;;;;33.17;13.95;;;;;;;;;;5149898;27;20053;-61
2022/01/27 03:52:52;;;;;;;34.75;14.35;;;;;;;;;;5136862;27;20502;-61
2022/01/27 03:55:18;;;;;;;34.53;14.18;;;;;;;;;;5134889;27;20055;-61
2022/01/27 03:57:44;;;;;;;33.90;13.98;;;;;;;;;;5150521;27;20504;-61
2022/01/27 04:00:11;;;;;;;36.83;14.95;;;;;;;;;;5147844;27;20051;-61
2022/01/27 04:02:48;;;;;;;30.98;14.35;;;;;;;;;;5139033;27;20049;-61
2022/01/27 04:05:15;;;;;;;31.85;14.35;;;;;;;;;;5149896;27;20482;-61
2022/01/27 04:07:42;;;;;;;36.38;15.18;;;;;;;;;;5149945;27;20055;-61
2022/01/27 04:10:08;;;;;;;29.80;14.05;;;;;;;;;;5148629;27;20051;-61
2022/01/27 04:12:35;;;;;;;26.95;13.45;;;;;;;;;;5147234;27;20051;-61
2022/01/27 04:15:01;;;;;;;28.52;12.93;;;;;;;;;;5149151;27;20059;-61
2022/01/27 04:17:27;;;;;;;31.92;13.50;;;;;;;;;;5149808;27;20051;-61
2022/01/27 04:19:54;;;;;;;32.35;14.00;;;;;;;;;;5150257;27;20057;-61
2022/01/27 04:22:20;;;;;;;28.83;13.02;;;;;;;;;;5143037;27;20379;-61
2022/01/27 04:24:46;;;;;;;35.60;14.13;;;;;;;;;;5128433;27;20124;-61
2022/01/27 04:27:19;;;;;;;33.88;14.32;;;;;;;;;;5128612;27;20515;-61
2022/01/27 04:29:45;;;;;;;29.05;13.45;;;;;;;;;;5128865;27;20043;-61
2022/01/27 04:32:13;;;;;;;30.00;13.77;;;;;;;;;;5132099;27;20055;-61
2022/01/27 04:34:42;;;;;;;35.58;14.02;;;;;;;;;;5149713;27;20585;-61
2022/01/27 04:37:11;;;;;;;29.60;13.18;;;;;;;;;;5148831;27;20268;-61
2022/01/27 04:39:45;;;;;;;33.28;14.05;;;;;;;;;;5149034;27;20850;-61
2022/01/27 04:42:20;;;;;;;31.92;14.00;;;;;;;;;;5145759;27;20079;-61
2022/01/27 04:45:08;;;;;;;34.53;14.98;;;;;;;;;;5128245;27;20058;-61
2022/01/27 04:47:40;;;;;;;34.75;15.18;;;;;;;;;;5128496;27;20090;-61
2022/01/27 04:50:07;;;;;;;36.67;14.02;;;;;;;;;;5128792;27;20575;-61
2022/01/27 04:52:37;;;;;;;32.92;14.10;;;;;;;;;;5133001;27;20408;-61
2022/01/27 04:55:08;;;;;;;39.15;15.80;;;;;;;;;;5149748;27;20142;-61
2022/01/27 04:57:37;;;;;;;33.35;14.32;;;;;;;;;;5149702;27;20055;-61
2022/01/27 05:00:03;;;;;;;;;;;;;;;;;;5149507;27;20073;-61
2022/01/27 05:02:39;;;;;;;30.45;13.90;;;;;;;;;;5129488;27;45962;-62
2022/01/27 05:05:06;;;;;;;30.05;13.75;;;;;;;;;;5127535;27;20051;-61
2022/01/27 05:07:54;;;;;;;37.72;14.50;;;;;;;;;;5128606;27;20055;-62
2022/01/27 05:10:24;;;;;;;33.92;13.60;;;;;;;;;;5128875;27;20047;-61
2022/01/27 05:12:53;;;;;;;31.88;12.85;;;;;;;;;;5129561;27;20060;-61
2022/01/27 05:15:21;;;;;;;32.45;14.80;;;;;;;;;;5136148;27;20070;-62
2022/01/27 05:17:47;;;;;;;34.55;13.40;;;;;;;;;;5128223;27;20472;-61
2022/01/27 05:20:13;;;;;;;36.13;13.38;;;;;;;;;;5129599;27;20054;-62
2022/01/27 05:22:40;;;;;;;32.00;13.35;;;;;;;;;;5145768;27;20062;-61
2022/01/27 05:25:06;;;;;;;36.15;12.82;;;;;;;;;;5128677;27;20211;-61
2022/01/27 05:27:33;;;;;;;38.25;14.10;;;;;;;;;;5129197;27;20101;-60
2022/01/27 05:30:00;;;;;;;31.92;13.77;;;;;;;;;;5128984;27;20058;-61
2022/01/27 05:32:26;;;;;;;37.88;13.27;;;;;;;;;;5148630;27;20431;-61
2022/01/27 05:34:52;;;;;;;30.95;13.20;;;;;;;;;;5147638;27;20090;-61
2022/01/27 05:37:18;;;;;;;32.85;12.85;;;;;;;;;;5148746;27;20059;-62
2022/01/27 05:39:45;;;;;;;35.35;12.95;;;;;;;;;;5148668;27;20106;-61
2022/01/27 05:42:11;;;;;;;42.60;13.77;;;;;;;;;;5127870;27;20138;-61
2022/01/27 05:44:37;;;;;;;27.55;12.30;;;;;;;;;;5127796;27;20138;-61
2022/01/27 05:47:04;;;;;;;32.00;13.15;;;;;;;;;;5127625;27;20138;-61
2022/01/27 05:49:30;;;;;;;34.78;13.15;;;;;;;;;;5128149;27;20056;-61
2022/01/27 05:51:56;;;;;;;38.33;13.38;;;;;;;;;;5128772;27;20095;-61
2022/01/27 05:54:23;;;;;;;35.17;13.23;;;;;;;;;;5127479;27;21448;-61
2022/01/27 05:56:49;;;;;;;32.88;12.60;;;;;;;;;;5129814;27;20142;-61
2022/01/27 05:59:16;;;;;;;31.67;11.93;;;;;;;;;;5130985;27;20093;-61
2022/01/27 06:01:42;;;;;;;31.90;12.23;;;;;;;;;;5144774;27;20090;-61
2022/01/27 06:04:09;;;;;;;29.48;12.80;;;;;;;;;;5151620;27;20047;-61
2022/01/27 06:06:35;;;;;;;31.88;12.57;;;;;;;;;;5150105;27;20059;-61
2022/01/27 06:09:01;;;;;;;29.70;10.85;;;;;;;;;;5151715;27;20440;-62
2022/01/27 06:11:28;;;;;;;31.08;12.05;;;;;;;;;;5130857;27;20048;-61
2022/01/27 06:13:54;;;;;;;28.02;11.88;;;;;;;;;;5131123;27;20078;-61
2022/01/27 06:16:20;;;;;;;29.45;11.68;;;;;;;;;;5131126;27;20058;-61
2022/01/27 06:18:47;;;;;;;31.00;12.48;;;;;;;;;;5131082;27;20052;-61
2022/01/27 06:21:14;;;;;;;35.78;12.07;;;;;;;;;;5130600;27;20079;-61
2022/01/27 06:23:40;;;;;;;33.40;11.25;;;;;;;;;;5131491;27;20066;-61
2022/01/27 06:26:06;;;;;;;33.97;11.45;;;;;;;;;;5135041;27;20169;-64
2022/01/27 06:28:33;;;;;;;28.15;11.18;;;;;;;;;;5150116;27;20112;-61
2022/01/27 06:30:59;;;;;;;33.35;10.05;;;;;;;;;;5151554;27;20051;-61
2022/01/27 06:33:25;;;;;;;32.50;10.75;;;;;;;;;;5150910;27;20089;-61
2022/01/27 06:35:52;;;;;;;31.02;10.30;;;;;;;;;;5149074;27;20055;-61
2022/01/27 06:38:18;;;;;;;31.55;12.07;;;;;;;;;;5112400;27;20540;-61
2022/01/27 06:40:44;;;;;;;30.98;11.30;;;;;;;;;;5131111;27;20066;-62
2022/01/27 06:43:14;;;;;;;33.10;11.02;;;;;;;;;;5130202;27;20075;-62
2022/01/27 06:45:41;;;;;;;33.97;11.23;;;;;;;;;;5129919;27;20052;-62
2022/01/27 06:48:08;;;;;;;32.72;11.75;;;;;;;;;;5129720;27;20055;-61
2022/01/27 06:50:37;;;;;;;42.53;12.93;;;;;;;;;;5143989;27;20084;-62
2022/01/27 06:53:03;;;;;;;37.65;12.02;;;;;;;;;;5130929;27;20059;-62
2022/01/27 06:55:30;;;;;;;35.42;11.00;;;;;;;;;;5130230;27;20078;-61
2022/01/27 06:57:56;;;;;;;34.97;11.95;;;;;;;;;;5129934;27;20079;-62
2022/01/27 07:00:22;;;;;;;40.55;12.02;;;;;;;;;;5130435;27;20056;-61
2022/01/27 07:02:49;;;;;;;39.00;11.73;;;;;;;;;;5129776;27;20057;-61
2022/01/27 07:05:17;;;;;;;40.92;12.40;;;;;;;;;;5135538;27;20054;-61
2022/01/27 07:07:43;;;;;;;50.47;12.35;;;;;;;;;;5134894;27;20505;-61
2022/01/27 07:10:09;;;;;;;43.53;12.10;;;;;;;;;;5129232;27;20044;-61
2022/01/27 07:12:38;;;;;;;40.33;12.50;;;;;;;;;;5130853;27;20058;-62
2022/01/27 07:15:04;;;;;;;;;;;;;;;;;;5136308;27;21292;-62
2022/01/27 07:17:34;;;;;;;35.83;10.45;;;;;;;;;;5135608;27;44681;-62
2022/01/27 07:20:01;;;;;;;31.17;11.07;;;;;;;;;;5150181;27;20055;-62
2022/01/27 07:22:28;;;;;;;42.60;11.57;;;;;;;;;;5149799;27;20051;-63
2022/01/27 07:24:54;;;;;;;37.95;13.25;;;;;;;;;;5138241;27;20047;-63
2022/01/27 07:27:20;;;;;;;35.13;12.07;;;;;;;;;;5151132;27;20054;-63
2022/01/27 07:29:47;;;;;;;48.78;13.48;;;;;;;;;;5140592;27;20055;-64
2022/01/27 07:32:13;;;;;;;32.33;11.95;;;;;;;;;;5140757;27;20051;-63
2022/01/27 07:34:45;;;;;;;35.28;12.35;;;;;;;;;;5134018;27;20578;-63
2022/01/27 07:37:11;;;;;;;46.38;13.18;;;;;;;;;;5129187;27;20051;-63
2022/01/27 07:39:37;;;;;;;36.17;12.77;;;;;;;;;;5129744;27;20553;-62
2022/01/27 07:42:04;;;;;;;36.65;11.85;;;;;;;;;;5128653;27;20055;-63
2022/01/27 07:44:30;;;;;;;42.13;12.65;;;;;;;;;;5131035;27;20057;-64
2022/01/27 07:46:59;;;;;;;34.00;12.68;;;;;;;;;;5129024;27;20063;-63
2022/01/27 07:49:25;;;;;;;37.00;12.55;;;;;;;;;;5129106;27;20146;-62
2022/01/27 07:51:52;;;;;;;35.47;11.90;;;;;;;;;;5140690;27;20053;-63
2022/01/27 07:54:18;;;;;;;41.60;13.57;;;;;;;;;;5128839;27;20430;-63
2022/01/27 07:56:44;;;;;;;38.35;12.77;;;;;;;;;;5140464;27;20055;-63
2022/01/27 07:59:11;;;;;;;38.63;13.52;;;;;;;;;;5149788;27;20054;-63
2022/01/27 08:01:37;;;;;;;39.80;12.07;;;;;;;;;;5149515;27;20046;-63
2022/01/27 08:04:04;;;;;;;41.10;13.35;;;;;;;;;;5143801;27;20061;-63
2022/01/27 08:06:30;;;;;;;43.80;13.52;;;;;;;;;;5138489;27;20055;-63
2022/01/27 08:08:57;;;;;;;43.53;13.10;;;;;;;;;;5129362;27;20052;-63
2022/01/27 08:11:23;;;;;;;44.97;12.88;;;;;;;;;;5129421;27;20051;-63
2022/01/27 08:13:49;;;;;;;45.22;13.93;;;;;;;;;;5128753;27;20131;-63
2022/01/27 08:16:16;;;;;;;42.63;14.25;;;;;;;;;;5132477;27;20141;-63
2022/01/27 08:18:45;;;;;;;48.72;14.25;;;;;;;;;;5151224;27;20074;-63
2022/01/27 08:21:12;;;;;;;35.30;13.60;;;;;;;;;;5166370;27;20058;-66
2022/01/27 08:23:40;;;;;;;36.35;13.20;;;;;;;;;;5132894;27;20142;-63
2022/01/27 08:26:09;;;;;;;;;;;;;;;;;;5143574;27;20077;-64
2022/01/27 08:28:42;;;;;;;35.58;11.95;;;;;;;;;;5156245;27;45860;-63
2022/01/27 08:31:08;;;;;;;33.10;10.35;;;;;;;;;;5141509;27;20062;-64
2022/01/27 08:33:38;;;;;;;39.95;12.50;;;;;;;;;;5133670;27;20503;-63
2022/01/27 08:36:05;;;;;;;35.45;11.77;;;;;;;;;;5149228;27;20058;-63
2022/01/27 08:38:31;;;;;;;38.38;13.48;;;;;;;;;;5155018;27;20142;-63
2022/01/27 08:41:01;;;;;;;44.88;12.55;;;;;;;;;;5154062;27;20154;-63
2022/01/27 08:43:27;;;;;;;36.17;11.52;;;;;;;;;;5137503;27;20501;-65
2022/01/27 08:45:53;;;;;;;37.25;11.55;;;;;;;;;;5155962;27;20059;-63
2022/01/27 08:48:21;;;;;;;37.95;10.88;;;;;;;;;;5153860;27;20053;-63
2022/01/27 08:51:11;;;;;;;33.75;11.05;;;;;;;;;;5154096;27;20495;-64
2022/01/27 08:53:55;;;;;;;34.20;9.80;;;;;;;;;;5142196;27;20149;-63
2022/01/27 08:56:21;;;;;;;28.92;9.75;;;;;;;;;;5158170;27;20135;-63
2022/01/27 08:58:48;;;;;;;26.83;9.05;;;;;;;;;;5163648;27;20094;-64
2022/01/27 09:01:14;;;;;;;33.20;9.90;;;;;;;;;;5151878;27;20055;-63
2022/01/27 09:03:41;;;;;;;23.25;9.05;;;;;;;;;;5164511;27;20062;-64
2022/01/27 09:06:08;;;;;;;29.40;9.60;;;;;;;;;;5157410;27;20153;-64
2022/01/27 09:08:55;;;;;;;31.35;9.82;;;;;;;;;;5153425;27;20058;-64
2022/01/27 09:11:21;;;;;;;25.67;9.65;;;;;;;;;;5156843;27;20047;-64
2022/01/27 09:14:08;;;;;;;34.25;10.80;;;;;;;;;;5160099;27;20925;-64
2022/01/27 09:16:35;;;;;;;27.58;9.27;;;;;;;;;;5147956;27;20051;-63
2022/01/27 09:19:21;;;;;;;32.05;10.07;;;;;;;;;;5148822;27;20851;-64
2022/01/27 09:21:48;;;;;;;28.00;9.93;;;;;;;;;;5149000;27;20111;-63
2022/01/27 09:24:50;;;;;;;26.95;9.23;;;;;;;;;;5148654;27;20047;-63
2022/01/27 09:27:17;;;;;;;34.15;9.88;;;;;;;;;;5149234;27;20257;-63
2022/01/27 09:29:47;;;;;;;30.88;9.68;;;;;;;;;;5138817;27;20435;-64
2022/01/27 09:32:14;;;;;;;32.35;10.32;;;;;;;;;;5129263;27;20047;-65
2022/01/27 09:34:41;;;;;;;29.02;10.38;;;;;;;;;;5131549;27;20512;-63
2022/01/27 09:37:07;;;;;;;26.88;9.07;;;;;;;;;;5131568;27;20058;-63
2022/01/27 09:39:34;;;;;;;33.45;10.35;;;;;;;;;;5140533;27;20501;-64
2022/01/27 09:42:01;;;;;;;38.08;9.32;;;;;;;;;;5132182;27;20056;-64
2022/01/27 09:44:30;;;;;;;36.00;9.50;;;;;;;;;;5135149;27;20047;-64
2022/01/27 09:46:59;;;;;;;31.67;10.32;;;;;;;;;;5132225;27;20572;-64
2022/01/27 09:49:36;;;;;;;29.45;9.38;;;;;;;;;;5130778;27;20062;-63
2022/01/27 09:52:04;;;;;;;33.42;9.80;;;;;;;;;;5131471;27;20574;-63
2022/01/27 09:54:31;;;;;;;34.65;9.48;;;;;;;;;;5144099;27;20053;-64
2022/01/27 09:56:57;;;;;;;25.25;9.73;;;;;;;;;;5143698;27;20555;-63
2022/01/27 09:59:24;;;;;;;28.90;10.57;;;;;;;;;;5140210;27;20078;-63
2022/01/27 10:02:02;;;;;;;33.80;9.65;;;;;;;;;;5137885;27;20051;-64
2022/01/27 10:04:42;;;;;;;28.40;8.38;;;;;;;;;;5145768;27;20051;-64
2022/01/27 10:07:09;;;;;;;29.73;8.70;;;;;;;;;;5130766;27;20075;-63
2022/01/27 10:09:36;;;;;;;30.67;9.63;;;;;;;;;;5146477;27;20410;-63
2022/01/27 10:12:03;;;;;;;35.42;9.20;;;;;;;;;;5148241;27;20081;-63
2022/01/27 10:14:34;;;;;;;34.63;9.57;;;;;;;;;;5145311;27;20070;-64
2022/01/27 10:17:03;;;;;;;25.50;8.38;;;;;;;;;;5139742;27;20134;-64
2022/01/27 10:19:30;;;;;;;26.88;8.02;;;;;;;;;;5151232;27;20061;-63
2022/01/27 10:22:01;;;;;;;27.92;8.98;;;;;;;;;;5130556;27;20052;-63
2022/01/27 10:24:29;;;;;;;23.83;8.20;;;;;;;;;;5131081;27;20043;-63
2022/01/27 10:27:21;;;;;;;29.05;8.23;;;;;;;;;;5143467;27;20569;-62
2022/01/27 10:32:44;;;;;;;35.80;8.45;;;;;;;;;;5130004;27;20574;-63
2022/01/27 10:35:12;;;;;;;27.83;8.00;;;;;;;;;;5134664;27;20075;-63
2022/01/27 10:38:12;;;;;;;29.23;7.95;;;;;;;;;;5139049;27;22107;-63
2022/01/27 10:40:40;;;;;;;35.90;8.85;;;;;;;;;;5074658;27;20545;-63
2022/01/27 10:43:14;;;;;;;40.53;9.70;;;;;;;;;;5130110;27;20058;-63
2022/01/27 10:46:00;;;;;;;31.00;8.25;;;;;;;;;;5135956;27;20048;-63
2022/01/27 10:48:30;;;;;;;24.80;8.18;;;;;;;;;;5149934;27;20050;-63
2022/01/27 10:51:04;;;;;;;26.48;8.50;;;;;;;;;;5151182;27;20058;-63
2022/01/27 10:53:45;;;;;;;30.13;9.18;;;;;;;;;;5138912;27;20077;-63
2022/01/27 10:56:16;;;;;;;30.05;8.20;;;;;;;;;;5144623;27;20051;-62
2022/01/27 10:58:43;;;;;;;26.40;7.25;;;;;;;;;;5135188;27;20054;-62
2022/01/27 11:01:10;;;;;;;26.77;7.15;;;;;;;;;;5134282;27;20047;-62
2022/01/27 11:03:37;;;;;;;30.70;7.25;;;;;;;;;;5128943;27;20624;-62
2022/01/27 11:06:08;;;;;;;37.13;7.38;;;;;;;;;;5145795;27;20051;-63
2022/01/27 11:08:37;;;;;;;28.95;8.45;;;;;;;;;;5148926;27;20057;-63
2022/01/27 11:11:04;;;;;;;33.25;7.38;;;;;;;;;;5141395;27;20527;-64
2022/01/27 11:13:33;;;;;;;23.75;6.57;;;;;;;;;;5144502;27;20109;-64
2022/01/27 11:15:59;;;;;;;21.13;7.00;;;;;;;;;;5149875;27;20061;-64
2022/01/27 11:18:28;;;;;;;25.50;6.50;;;;;;;;;;5137453;27;20056;-64
2022/01/27 11:26:02;;;;;;;25.63;6.50;;;;;;;;;;5132105;27;20052;-62
2022/01/27 11:28:31;;;;;;;20.67;6.70;;;;;;;;;;5132848;27;20144;-62
2022/01/27 11:31:17;;;;;;;30.33;7.03;;;;;;;;;;5135315;27;20059;-62
2022/01/27 11:33:44;;;;;;;17.60;5.78;;;;;;;;;;5134476;27;20492;-62
2022/01/27 11:36:12;;;;;;;27.00;6.68;;;;;;;;;;5134804;27;20050;-61
2022/01/27 11:38:42;;;;;;;21.42;6.85;;;;;;;;;;5140043;27;20123;-63
2022/01/27 11:41:31;;;;;;;18.98;6.65;;;;;;;;;;5139757;27;20573;-62
2022/01/27 11:44:16;;;;;;;27.30;7.43;;;;;;;;;;5129069;27;20626;-62
2022/01/27 11:47:03;;;;;;;19.90;6.70;;;;;;;;;;5139299;27;20079;-62
2022/01/27 11:49:55;;;;;;;24.23;6.30;;;;;;;;;;5138894;27;20190;-62
2022/01/27 11:52:29;;;;;;;19.50;5.45;;;;;;;;;;5134063;27;20542;-62
2022/01/27 11:54:56;;;;;;;24.52;7.15;;;;;;;;;;5142571;27;20052;-62
2022/01/27 11:57:39;;;;;;;30.60;7.07;;;;;;;;;;5132048;27;20069;-62
2022/01/27 12:00:10;;;;;;;30.08;7.35;;;;;;;;;;5133454;27;20066;-62
2022/01/27 12:02:55;;;;;;;28.30;7.00;;;;;;;;;;5135327;27;20134;-63
2022/01/27 12:05:22;;;;;;;25.27;6.28;;;;;;;;;;5131349;27;20055;-63
2022/01/27 12:08:07;;;;;;;22.80;6.53;;;;;;;;;;5142479;27;20043;-62
2022/01/27 12:10:48;;;;;;;23.75;5.95;;;;;;;;;;5134450;27;20048;-63
2022/01/27 12:13:45;;;;;;;25.58;6.97;;;;;;;;;;5140244;27;20062;-63
2022/01/27 12:16:25;;;;;;;20.98;5.78;;;;;;;;;;5134024;27;20051;-63
2022/01/27 12:18:59;;;;;;;23.90;5.45;;;;;;;;;;5135808;27;20043;-63
2022/01/27 12:21:28;;;;;;;22.17;5.53;;;;;;;;;;5134118;27;20170;-63
2022/01/27 12:24:10;;;;;;;26.55;5.75;;;;;;;;;;5136749;27;20410;-63
2022/01/27 12:26:51;;;;;;;14.95;4.90;;;;;;;;;;5136575;27;20055;-64
2022/01/27 12:29:22;;;;;;;19.63;5.68;;;;;;;;;;5148035;27;20055;-64
2022/01/27 12:31:49;;;;;;;29.88;5.93;;;;;;;;;;5147346;27;20062;-64
2022/01/27 12:34:15;;;;;;;27.58;5.25;;;;;;;;;;5135201;27;20074;-64
2022/01/27 12:36:54;;;;;;;24.25;5.57;;;;;;;;;;5130594;27;20141;-64
2022/01/27 12:39:20;;;;;;;22.75;5.25;;;;;;;;;;5130581;27;20513;-64
2022/01/27 12:41:48;;;;;;;26.67;5.45;;;;;;;;;;5136325;27;20836;-63
2022/01/27 12:44:14;;;;;;;17.67;4.65;;;;;;;;;;5132651;27;20952;-63
2022/01/27 12:47:03;;;;;;;25.33;5.30;;;;;;;;;;5133696;27;20112;-64
2022/01/27 12:49:36;;;;;;;16.27;4.90;;;;;;;;;;5135647;27;20108;-64
2022/01/27 12:52:06;;;;;;;14.98;4.57;;;;;;;;;;5133107;27;20504;-64
2022/01/27 12:54:33;;;;;;;20.15;4.75;;;;;;;;;;5137711;27;20075;-64
2022/01/27 12:57:00;;;;;;;15.88;4.55;;;;;;;;;;5143354;27;20047;-63
2022/01/27 12:59:37;;;;;;;15.93;4.82;;;;;;;;;;5143978;27;20914;-64
2022/01/27 13:02:05;;;;;;;17.33;4.75;;;;;;;;;;5147705;27;20850;-64
2022/01/27 13:04:32;;;;;;;16.17;4.30;;;;;;;;;;5134465;27;20056;-64
2022/01/27 13:06:59;;;;;;;19.73;4.53;;;;;;;;;;5129630;27;20051;-65
2022/01/27 13:09:27;;;;;;;14.38;4.28;;;;;;;;;;5133699;27;20051;-64
2022/01/27 13:11:55;;;;;;;17.77;3.92;;;;;;;;;;5152120;27;20051;-65
2022/01/27 13:14:22;;;;;;;16.58;4.78;;;;;;;;;;5145136;27;20101;-64
2022/01/27 13:16:54;;;;;;;14.55;3.72;;;;;;;;;;5141650;27;20108;-64
2022/01/27 13:19:36;;;;;;;19.70;4.07;;;;;;;;;;5131728;27;20058;-64
2022/01/27 13:22:06;;;;;;;20.20;4.10;;;;;;;;;;5131329;27;20084;-64
2022/01/27 13:24:46;;;;;;;23.08;4.20;;;;;;;;;;5132410;27;20044;-63
2022/01/27 13:27:13;;;;;;;15.20;3.60;;;;;;;;;;5135262;27;20102;-64
2022/01/27 13:29:45;;;;;;;18.35;4.20;;;;;;;;;;5131852;27;20055;-64
2022/01/27 13:32:11;;;;;;;13.73;3.78;;;;;;;;;;5141319;27;20529;-64
2022/01/27 13:34:48;;;;;;;20.83;3.42;;;;;;;;;;5147349;27;20149;-64
2022/01/27 13:37:26;;;;;;;12.18;3.75;;;;;;;;;;5152748;27;20055;-64
2022/01/27 13:42:18;;;;;;;17.77;3.83;;;;;;;;;;5141203;27;20051;-64
2022/01/27 13:44:53;;;;;;;15.88;3.22;;;;;;;;;;5132363;27;20093;-64
2022/01/27 13:47:26;;;;;;;14.77;3.72;;;;;;;;;;5130844;27;20170;-64
2022/01/27 13:49:53;;;;;;;16.92;3.90;;;;;;;;;;5142132;27;20051;-66
2022/01/27 13:52:24;;;;;;;12.68;3.10;;;;;;;;;;5131580;27;20097;-64
2022/01/27 13:54:51;;;;;;;13.73;3.08;;;;;;;;;;5134318;27;20048;-65
2022/01/27 13:57:22;;;;;;;14.82;3.33;;;;;;;;;;5139945;27;20089;-66
2022/01/27 14:00:00;;;;;;;18.50;3.70;;;;;;;;;;5144097;27;20047;-67
2022/01/27 14:02:28;;;;;;;22.60;4.05;;;;;;;;;;5137212;27;20512;-67
2022/01/27 14:04:59;;;;;;;16.95;3.47;;;;;;;;;;5129357;27;20897;-68
2022/01/27 14:07:30;;;;;;;13.52;2.50;;;;;;;;;;5130626;27;20047;-63
2022/01/27 14:10:11;;;;;;;15.10;3.28;;;;;;;;;;5129079;27;20615;-63
2022/01/27 14:13:01;;;;;;;11.90;2.80;;;;;;;;;;5129526;27;20490;-63
2022/01/27 14:15:28;;;;;;;24.10;3.17;;;;;;;;;;5128922;27;20469;-63
2022/01/27 14:17:55;;;;;;;13.55;3.58;;;;;;;;;;5137651;27;20131;-66
2022/01/27 14:20:22;;;;;;;12.13;2.50;;;;;;;;;;5136537;27;20080;-61
2022/01/27 14:23:00;;;;;;;13.93;3.33;;;;;;;;;;5143236;27;20489;-63
2022/01/27 14:25:35;;;;;;;12.55;2.30;;;;;;;;;;5138153;27;20058;-63
2022/01/27 14:28:10;;;;;;;13.85;2.22;;;;;;;;;;5130467;27;20150;-63
2022/01/27 14:30:36;;;;;;;13.50;2.70;;;;;;;;;;5141687;27;20047;-62
2022/01/27 14:33:02;;;;;;;7.60;2.08;;;;;;;;;;5145418;27;20057;-62
2022/01/27 14:35:29;;;;;;;17.88;3.00;;;;;;;;;;5134292;27;20051;-63
2022/01/27 14:37:57;;;;;;;10.57;2.78;;;;;;;;;;5133557;27;20400;-61
2022/01/27 14:40:25;;;;;;;15.60;2.55;;;;;;;;;;5136571;27;20047;-62
2022/01/27 14:42:53;;;;;;;10.35;2.15;;;;;;;;;;5131001;27;20527;-61
2022/01/27 14:45:19;;;;;;;11.77;2.17;;;;;;;;;;5133276;27;20147;-62
2022/01/27 14:48:02;;;;;;;13.83;2.33;;;;;;;;;;5129884;27;20054;-61
2022/01/27 14:50:30;;;;;;;19.30;2.55;;;;;;;;;;5130044;27;20051;-62
2022/01/27 14:52:58;;;;;;;22.33;3.38;;;;;;;;;;5111717;27;20052;-61
2022/01/27 14:55:24;;;;;;;11.60;2.20;;;;;;;;;;5130002;27;20146;-61
2022/01/27 14:57:51;;;;;;;11.52;2.15;;;;;;;;;;5129936;27;20058;-61
2022/01/27 15:00:18;;;;;;;15.57;2.88;;;;;;;;;;5130154;27;20055;-62
2022/01/27 15:02:45;;;;;;;14.60;3.17;;;;;;;;;;5133450;27;20058;-61
2022/01/27 15:05:11;;;;;;;12.18;2.45;;;;;;;;;;5133214;27;20097;-62
2022/01/27 15:07:38;;;;;;;17.48;2.65;;;;;;;;;;5129140;27;20056;-62
2022/01/27 15:10:05;;;;;;;28.35;4.63;;;;;;;;;;5130426;27;20060;-61
2022/01/27 15:12:32;;;;;;;17.48;2.38;;;;;;;;;;5139269;27;20081;-63
2022/01/27 15:20:30;;;;;;;9.32;2.28;;;;;;;;;;5132698;27;20166;-63
2022/01/27 15:22:57;;;;;;;11.70;1.75;;;;;;;;;;5129695;27;20501;-63
2022/01/27 15:25:23;;;;;;;17.92;3.05;;;;;;;;;;5129675;27;20147;-63